GCTS/TFS METAR and TAF weather

Enter ICAO airport designator
Station Type Date Time Source
GCTS METAR 2018/04/26 15:00 UTC NOAA

GCTS 261500Z 10017KT 9999 FEW030 23/14 Q1019 NOSIG


Station Type Date Time Source
GCTS Decoded METAR 2018/04/26 15:00 UTC NOAA

Tenerife Sur, Spain (GCTS) 28-03N 016-34W 77M
Apr 26, 2018 - 11:00 AM EDT / 2018.04.26 1500 UTC
Wind: from the E (100 degrees) at 20 MPH (17 KT):0
Visibility: greater than 7 mile(s):0
Sky conditions: mostly clear
Temperature: 73 F (23 C)
Dew Point: 57 F (14 C)
Relative Humidity: 56%
Pressure (altimeter): 30.09 in. Hg (1019 hPa)
ob: GCTS 261500Z 10017KT 9999 FEW030 23/14 Q1019 NOSIG
cycle: 15

Station Type Date Time Source
GCTS TAF 2018/04/26 15:27 UTC NOAA

TAF GCTS 261400Z 2615/2715 09020KT 9999 FEW030 TX23/2714Z TN17/2705Z
BECMG 2619/2622 VRB05KT
BECMG 2708/2711 09016KT


Example: see airport list